Time;durP1;ratioP1;P1;durP2;ratioP2;P2;SDS_P1;SDS_P2;PMS_P1;PMS_P2;Temp;Humidity;BMP_temperature;BMP_pressure;BME280_temperature;BME280_humidity;BME280_pressure;Samples;Min_cycle;Max_cycle;Signal;HPM_P1;HPM_P2
2021/04/04 00:02:13;;;;;;;12.30;9.50;;;2.20;99.90;;;;;;5044728;28;20448;-78
2021/04/04 00:04:39;;;;;;;12.13;9.53;;;2.20;99.90;;;;;;5032930;28;20452;-78
2021/04/04 00:07:05;;;;;;;9.47;8.57;;;2.10;99.90;;;;;;5033637;28;20597;-78
2021/04/04 00:09:32;;;;;;;11.97;8.90;;;2.10;99.90;;;;;;5036812;28;21023;-78
2021/04/04 00:11:58;;;;;;;8.97;8.07;;;2.10;99.90;;;;;;5030912;28;20446;-78
2021/04/04 00:14:25;;;;;;;14.93;8.83;;;2.20;99.90;;;;;;5035262;28;20443;-78
2021/04/04 00:16:52;;;;;;;10.97;9.57;;;2.20;99.90;;;;;;5051667;28;20469;-78
2021/04/04 00:19:18;;;;;;;10.03;8.47;;;2.30;99.90;;;;;;5055120;28;20438;-79
2021/04/04 00:21:44;;;;;;;11.83;9.53;;;2.20;99.90;;;;;;5050462;28;20446;-79
2021/04/04 00:24:11;;;;;;;11.00;9.33;;;2.20;99.90;;;;;;5035468;28;20443;-79
2021/04/04 00:26:37;;;;;;;12.20;9.63;;;2.20;99.90;;;;;;5045195;28;21010;-79
2021/04/04 00:29:06;;;;;;;9.50;8.53;;;2.20;99.90;;;;;;5050495;28;20532;-79
2021/04/04 00:31:33;;;;;;;10.37;9.13;;;2.10;99.90;;;;;;5054424;28;20446;-79
2021/04/04 00:34:00;;;;;;;11.00;9.30;;;2.00;99.90;;;;;;5036608;28;20444;-79
2021/04/04 00:36:26;;;;;;;12.80;9.80;;;1.90;99.90;;;;;;5040545;28;20554;-78
2021/04/04 00:38:53;;;;;;;11.83;9.70;;;1.90;99.90;;;;;;5034723;28;20436;-79
2021/04/04 00:41:20;;;;;;;10.30;9.30;;;1.90;99.90;;;;;;5037247;28;20436;-79
2021/04/04 00:43:46;;;;;;;11.70;9.80;;;1.90;99.90;;;;;;5037757;28;20446;-79
2021/04/04 00:46:12;;;;;;;10.53;9.50;;;1.80;99.90;;;;;;5047379;28;20461;-78
2021/04/04 00:48:39;;;;;;;13.07;9.33;;;1.70;99.90;;;;;;5052392;28;20445;-79
2021/04/04 00:51:06;;;;;;;10.63;9.23;;;1.80;99.90;;;;;;5045996;28;20817;-79
2021/04/04 00:53:33;;;;;;;10.83;9.73;;;1.80;99.90;;;;;;5032058;28;20478;-78
2021/04/04 00:56:00;;;;;;;10.67;9.57;;;1.80;99.90;;;;;;5046233;28;20464;-79
2021/04/04 00:58:26;;;;;;;10.43;9.20;;;1.80;99.90;;;;;;5039849;28;20476;-77
2021/04/04 01:00:52;;;;;;;10.70;9.70;;;1.70;99.90;;;;;;5038563;28;20927;-78
2021/04/04 01:03:19;;;;;;;12.77;9.40;;;1.70;99.90;;;;;;5034661;28;20448;-78
2021/04/04 01:05:49;;;;;;;12.83;9.40;;;1.70;99.90;;;;;;5042260;28;20438;-78
2021/04/04 01:08:15;;;;;;;11.33;9.33;;;1.60;99.90;;;;;;5051229;28;20422;-77
2021/04/04 01:10:45;;;;;;;12.43;10.00;;;1.60;99.90;;;;;;5047039;28;20487;-79
2021/04/04 01:13:17;;;;;;;10.17;9.13;;;1.60;99.90;;;;;;5031911;28;20441;-79
2021/04/04 01:15:47;;;;;;;10.13;9.13;;;1.50;99.90;;;;;;5052593;28;20457;-78
2021/04/04 01:18:18;;;;;;;11.77;9.27;;;1.40;99.90;;;;;;5041119;28;20456;-79
2021/04/04 01:20:50;;;;;;;9.97;8.97;;;1.40;99.90;;;;;;5042599;28;20450;-79
2021/04/04 01:23:41;;;;;;;10.73;9.70;;;1.40;99.90;;;;;;5038639;28;20517;-78
2021/04/04 01:26:20;;;;;;;11.97;9.40;;;1.50;99.90;;;;;;5037108;28;20496;-77
2021/04/04 01:28:48;;;;;;;9.33;8.43;;;1.40;99.90;;;;;;5029905;28;20432;-79
2021/04/04 01:31:15;;;;;;;10.07;8.80;;;1.40;99.90;;;;;;5031957;28;20434;-78
2021/04/04 01:33:43;;;;;;;10.33;9.17;;;1.40;99.90;;;;;;5036862;28;20449;-79
2021/04/04 01:36:12;;;;;;;10.17;9.17;;;1.40;99.90;;;;;;5030349;28;20832;-79
2021/04/04 01:38:41;;;;;;;12.53;10.00;;;1.40;99.90;;;;;;5050759;28;20535;-79
2021/04/04 01:41:13;;;;;;;10.70;9.70;;;1.40;99.90;;;;;;5039616;28;20824;-79
2021/04/04 01:43:42;;;;;;;12.77;9.97;;;1.40;99.90;;;;;;5037792;28;20441;-79
2021/04/04 01:46:10;;;;;;;12.50;10.00;;;1.50;99.90;;;;;;5034462;28;20455;-79
2021/04/04 01:48:38;;;;;;;13.87;11.53;;;1.50;99.90;;;;;;5039095;28;20457;-78
2021/04/04 01:51:05;;;;;;;15.30;9.73;;;1.50;99.90;;;;;;5037586;28;20479;-79
2021/04/04 01:53:34;;;;;;;14.13;10.20;;;1.50;99.90;;;;;;5044558;28;20433;-79
2021/04/04 01:56:01;;;;;;;10.57;9.50;;;1.40;99.90;;;;;;5045601;28;20470;-78
2021/04/04 01:58:29;;;;;;;10.27;9.23;;;1.30;99.90;;;;;;5049998;28;20504;-78
2021/04/04 02:00:56;;;;;;;12.83;9.77;;;1.20;99.90;;;;;;5043668;28;20962;-79
2021/04/04 02:03:24;;;;;;;11.23;10.13;;;1.20;99.90;;;;;;5032713;28;20443;-79
2021/04/04 02:05:51;;;;;;;13.83;10.80;;;1.20;99.90;;;;;;5048610;28;20438;-79
2021/04/04 02:08:18;;;;;;;14.90;9.60;;;1.20;99.90;;;;;;5028517;28;20967;-78
2021/04/04 02:10:46;;;;;;;12.87;10.10;;;1.20;99.90;;;;;;5034209;28;21013;-78
2021/04/04 02:13:13;;;;;;;10.20;9.10;;;1.20;99.90;;;;;;5029713;28;20810;-78
2021/04/04 02:15:40;;;;;;;13.73;10.53;;;1.10;99.90;;;;;;5033853;28;20962;-78
2021/04/04 02:18:08;;;;;;;11.53;10.03;;;1.10;99.90;;;;;;5030661;28;20443;-80
2021/04/04 02:20:36;;;;;;;11.83;10.03;;;1.20;99.90;;;;;;5027628;28;20443;-78
2021/04/04 02:23:07;;;;;;;12.57;10.53;;;1.10;99.90;;;;;;5028294;28;20447;-79
2021/04/04 02:25:33;;;;;;;11.77;10.20;;;1.10;99.90;;;;;;5034091;28;20472;-78
2021/04/04 02:28:00;;;;;;;10.93;9.83;;;1.00;99.90;;;;;;5043641;28;20930;-78
2021/04/04 02:30:27;;;;;;;13.33;10.17;;;1.00;99.90;;;;;;5054293;28;20540;-79
2021/04/04 02:33:00;;;;;;;12.77;10.13;;;1.00;99.90;;;;;;5043923;28;20456;-78
2021/04/04 02:35:29;;;;;;;10.97;9.73;;;1.00;99.90;;;;;;5053767;28;20446;-79
2021/04/04 02:38:00;;;;;;;11.03;9.83;;;1.00;99.90;;;;;;5039934;28;20446;-81
2021/04/04 02:40:27;;;;;;;12.43;10.10;;;0.90;99.90;;;;;;5041585;28;20971;-79
2021/04/04 02:42:56;;;;;;;10.27;9.27;;;0.80;99.90;;;;;;5043920;28;20835;-79
2021/04/04 02:45:26;;;;;;;11.13;9.93;;;0.80;99.90;;;;;;5029734;28;20439;-77
2021/04/04 02:47:57;;;;;;;11.07;9.97;;;0.80;99.90;;;;;;5014613;28;20551;-76
2021/04/04 02:50:27;;;;;;;11.90;10.50;;;0.80;99.90;;;;;;5016180;28;20472;-76
2021/04/04 02:52:58;;;;;;;12.70;10.33;;;0.80;99.90;;;;;;5016899;28;20446;-77
2021/04/04 02:55:27;;;;;;;13.70;10.47;;;0.90;99.90;;;;;;5018567;28;20999;-77
2021/04/04 02:57:54;;;;;;;11.03;9.93;;;1.00;99.90;;;;;;5009691;28;20472;-75
2021/04/04 03:00:22;;;;;;;11.00;9.87;;;0.90;99.90;;;;;;5021136;28;20989;-77
2021/04/04 03:02:50;;;;;;;9.83;8.90;;;0.90;99.90;;;;;;5026356;28;20448;-77
2021/04/04 03:05:17;;;;;;;9.97;8.97;;;0.90;99.90;;;;;;5030688;28;20459;-78
2021/04/04 03:07:45;;;;;;;10.60;9.53;;;0.90;99.90;;;;;;5015832;28;20857;-78
2021/04/04 03:10:12;;;;;;;12.83;9.97;;;0.90;99.90;;;;;;5020357;28;20499;-78
2021/04/04 03:12:41;;;;;;;13.87;10.03;;;1.00;99.90;;;;;;5029185;28;22355;-79
2021/04/04 03:15:10;;;;;;;13.23;10.23;;;1.00;99.90;;;;;;5037288;28;20549;-78
2021/04/04 03:17:41;;;;;;;10.73;9.07;;;1.00;99.90;;;;;;5028560;28;21045;-79
2021/04/04 03:20:09;;;;;;;12.57;9.87;;;0.90;99.90;;;;;;5024254;28;20478;-77
2021/04/04 03:22:39;;;;;;;11.37;9.73;;;0.90;99.90;;;;;;5034315;28;20437;-78
2021/04/04 03:25:08;;;;;;;10.13;9.23;;;0.90;99.90;;;;;;5030464;28;20482;-78
2021/04/04 03:27:36;;;;;;;12.70;8.80;;;0.80;99.90;;;;;;5033460;28;20466;-77
2021/04/04 03:30:06;;;;;;;10.10;8.90;;;0.80;99.90;;;;;;5022775;28;20478;-78
2021/04/04 03:32:35;;;;;;;12.30;9.50;;;0.80;99.90;;;;;;5033539;28;20432;-78
2021/04/04 03:35:03;;;;;;;11.07;9.83;;;0.70;99.90;;;;;;5028009;28;21014;-79
2021/04/04 03:37:30;;;;;;;11.77;10.37;;;0.70;99.90;;;;;;5026824;28;20513;-78
2021/04/04 03:39:57;;;;;;;11.57;10.17;;;0.70;99.90;;;;;;5032973;28;20439;-78
2021/04/04 03:42:25;;;;;;;15.53;10.43;;;0.70;99.90;;;;;;5025276;28;20463;-78
2021/04/04 03:44:54;;;;;;;11.57;9.10;;;0.60;99.90;;;;;;5021500;28;20855;-78
2021/04/04 03:47:21;;;;;;;12.57;10.20;;;0.50;99.90;;;;;;5028013;28;20463;-78
2021/04/04 03:49:48;;;;;;;11.60;9.60;;;0.60;99.90;;;;;;5029294;28;21020;-79
2021/04/04 03:52:15;;;;;;;11.07;9.97;;;0.70;99.90;;;;;;5031335;28;20457;-79
2021/04/04 03:54:43;;;;;;;11.20;10.10;;;0.70;99.90;;;;;;5032104;28;20975;-79
2021/04/04 03:57:11;;;;;;;11.63;9.67;;;0.70;99.90;;;;;;5038606;28;20469;-80
2021/04/04 03:59:39;;;;;;;14.07;10.40;;;0.60;99.90;;;;;;5030500;28;20815;-80
2021/04/04 04:02:07;;;;;;;9.80;8.80;;;0.60;99.90;;;;;;5028784;28;20455;-78
2021/04/04 04:04:36;;;;;;;11.63;9.30;;;0.60;99.90;;;;;;5030434;28;20440;-78
2021/04/04 04:07:04;;;;;;;12.10;9.80;;;0.60;99.90;;;;;;5033264;28;20474;-78
2021/04/04 04:09:33;;;;;;;10.60;9.47;;;0.50;99.90;;;;;;5038173;28;20473;-78
2021/04/04 04:12:01;;;;;;;11.57;9.27;;;0.50;99.90;;;;;;5033876;28;20461;-79
2021/04/04 04:14:30;;;;;;;10.43;8.87;;;0.50;99.90;;;;;;5033486;28;20450;-78
2021/04/04 04:16:58;;;;;;;9.97;8.97;;;0.40;99.90;;;;;;5023672;28;20475;-77
2021/04/04 04:19:24;;;;;;;9.87;8.97;;;0.40;99.90;;;;;;5039131;28;20430;-77
2021/04/04 04:21:52;;;;;;;12.17;11.00;;;0.30;99.90;;;;;;5027131;28;20435;-78
2021/04/04 04:24:20;;;;;;;14.40;10.60;;;0.30;99.90;;;;;;5035538;28;20526;-77
2021/04/04 04:26:48;;;;;;;10.67;9.57;;;0.20;99.90;;;;;;5040726;28;20968;-77
2021/04/04 04:29:15;;;;;;;11.10;9.87;;;0.20;99.90;;;;;;5040667;28;20473;-78
2021/04/04 04:31:45;;;;;;;14.70;9.77;;;0.30;99.90;;;;;;5034146;28;20443;-78
2021/04/04 04:34:12;;;;;;;10.43;9.10;;;0.30;99.90;;;;;;5028078;28;20514;-78
2021/04/04 04:36:41;;;;;;;11.37;10.00;;;0.30;99.90;;;;;;5028843;28;20462;-78
2021/04/04 04:39:10;;;;;;;16.40;10.03;;;0.30;99.90;;;;;;5040919;28;20440;-78
2021/04/04 04:41:41;;;;;;;10.30;9.20;;;0.30;99.90;;;;;;5033146;28;20461;-78
2021/04/04 04:44:09;;;;;;;12.50;9.57;;;0.40;99.90;;;;;;5033369;28;20506;-78
2021/04/04 04:46:38;;;;;;;13.53;10.30;;;0.40;99.90;;;;;;5032063;28;20461;-77
2021/04/04 04:49:06;;;;;;;9.83;8.87;;;0.40;99.90;;;;;;5037302;28;20460;-77
2021/04/04 04:51:32;;;;;;;13.60;9.80;;;0.40;99.90;;;;;;5040802;28;20434;-76
2021/04/04 04:53:59;;;;;;;10.30;9.33;;;0.40;99.90;;;;;;5043270;28;20449;-77
2021/04/04 04:56:27;;;;;;;10.10;9.10;;;0.40;99.90;;;;;;5034946;28;20486;-78
2021/04/04 04:58:54;;;;;;;10.87;9.10;;;0.40;99.90;;;;;;5030385;28;20439;-76
2021/04/04 05:01:24;;;;;;;10.53;9.60;;;0.40;99.90;;;;;;5025975;28;20461;-79
2021/04/04 05:03:51;;;;;;;10.43;9.33;;;0.40;99.90;;;;;;5029614;28;20447;-80
2021/04/04 05:06:18;;;;;;;10.47;9.30;;;0.40;99.90;;;;;;5032192;28;20532;-80
2021/04/04 05:08:46;;;;;;;10.60;9.13;;;0.40;99.90;;;;;;5022191;28;20447;-79
2021/04/04 05:11:15;;;;;;;10.87;9.83;;;0.40;99.90;;;;;;5019035;28;20483;-79
2021/04/04 05:13:43;;;;;;;9.63;8.73;;;0.50;99.90;;;;;;5030716;28;20458;-78
2021/04/04 05:16:11;;;;;;;12.67;9.43;;;0.50;99.90;;;;;;5031435;28;20498;-78
2021/04/04 05:18:38;;;;;;;11.73;9.80;;;0.50;99.90;;;;;;5034825;28;20435;-77
2021/04/04 05:21:05;;;;;;;11.07;8.67;;;0.40;99.90;;;;;;5026503;28;20535;-77
2021/04/04 05:23:32;;;;;;;9.77;8.60;;;0.50;99.90;;;;;;5021246;28;20437;-78
2021/04/04 05:25:59;;;;;;;12.50;9.50;;;0.60;99.90;;;;;;5023127;28;20486;-78
2021/04/04 05:28:26;;;;;;;10.17;9.17;;;0.60;99.90;;;;;;5032015;28;20447;-78
2021/04/04 05:30:53;;;;;;;10.17;9.03;;;0.60;99.90;;;;;;5034028;28;20501;-78
2021/04/04 05:33:20;;;;;;;11.80;9.10;;;0.70;99.90;;;;;;5033548;28;20961;-78
2021/04/04 05:35:46;;;;;;;12.50;9.77;;;0.80;99.90;;;;;;5026824;28;20440;-77
2021/04/04 05:38:12;;;;;;;11.90;9.23;;;0.90;99.90;;;;;;5023771;28;20431;-78
2021/04/04 05:40:39;;;;;;;11.17;9.37;;;1.00;99.90;;;;;;5026143;28;20809;-78
2021/04/04 05:43:12;;;;;;;10.27;9.27;;;1.50;99.90;;;;;;5031461;28;20435;-78
2021/04/04 05:45:44;;;;;;;18.33;9.33;;;1.80;99.90;;;;;;5029113;28;20442;-77
2021/04/04 05:48:23;;;;;;;10.67;9.60;;;2.20;99.90;;;;;;5034559;28;20431;-78
2021/04/04 05:51:13;;;;;;;10.67;9.33;;;2.50;99.90;;;;;;5025031;28;20537;-78
2021/04/04 05:53:51;;;;;;;10.40;9.30;;;2.70;99.90;;;;;;5033827;28;20436;-78
2021/04/04 05:56:24;;;;;;;9.43;8.43;;;2.90;99.90;;;;;;5031530;28;20489;-77
2021/04/04 05:58:56;;;;;;;9.70;8.50;;;3.10;99.90;;;;;;5030870;28;20827;-78
2021/04/04 06:01:49;;;;;;;10.10;9.10;;;3.10;99.90;;;;;;5029397;28;20457;-77
2021/04/04 06:04:42;;;;;;;10.20;8.77;;;3.30;99.90;;;;;;5028588;28;20460;-77
2021/04/04 06:07:37;;;;;;;10.00;9.00;;;3.40;99.90;;;;;;5031924;28;21009;-77
2021/04/04 06:10:06;;;;;;;9.73;8.17;;;3.70;99.90;;;;;;5045343;28;20851;-79
2021/04/04 06:12:57;;;;;;;8.83;7.73;;;3.90;99.90;;;;;;5034360;28;20429;-78
2021/04/04 06:15:33;;;;;;;9.17;6.03;;;4.10;99.90;;;;;;5043941;28;20484;-80
2021/04/04 06:18:11;;;;;;;9.87;5.40;;;4.40;99.90;;;;;;5032368;28;20455;-77
2021/04/04 06:21:09;;;;;;;13.07;6.47;;;4.60;99.90;;;;;;5042348;28;20453;-81
2021/04/04 06:23:45;;;;;;;10.97;7.03;;;4.80;99.90;;;;;;5032227;28;20460;-80
2021/04/04 06:26:26;;;;;;;8.77;6.97;;;5.00;99.90;;;;;;5040433;28;20919;-80
2021/04/04 06:29:00;;;;;;;9.17;6.40;;;5.10;99.90;;;;;;5026349;28;20455;-80
2021/04/04 06:31:34;;;;;;;8.60;7.10;;;5.10;99.90;;;;;;5029206;28;20895;-79
2021/04/04 06:34:08;;;;;;;7.93;6.20;;;5.20;99.90;;;;;;5022675;28;20812;-81
2021/04/04 06:36:44;;;;;;;8.53;6.70;;;5.20;99.90;;;;;;5031086;28;20489;-79
2021/04/04 06:39:36;;;;;;;9.00;7.83;;;5.20;99.90;;;;;;5044646;28;20228;-80
2021/04/04 06:42:10;;;;;;;10.27;8.43;;;5.30;99.90;;;;;;5030876;28;20192;-81
2021/04/04 06:45:46;;;;;;;9.37;8.30;;;5.30;99.90;;;;;;5029954;28;20513;-84
2021/04/04 06:48:40;;;;;;;10.37;7.97;;;5.40;99.90;;;;;;4944475;28;21002;-80
2021/04/04 06:51:14;;;;;;;9.40;8.50;;;5.50;99.90;;;;;;5053879;28;20219;-80
2021/04/04 06:54:01;;;;;;;9.60;8.80;;;5.70;99.90;;;;;;5034647;28;20195;-80
2021/04/04 06:56:40;;;;;;;9.70;8.80;;;5.90;99.90;;;;;;5034862;28;20243;-80
2021/04/04 06:59:17;;;;;;;9.20;8.30;;;6.00;99.90;;;;;;5035500;28;20196;-80
2021/04/04 07:01:58;;;;;;;9.83;8.83;;;6.20;99.90;;;;;;5036704;28;20291;-80
2021/04/04 07:04:37;;;;;;;11.73;9.40;;;6.40;99.90;;;;;;5031752;28;20195;-80
2021/04/04 07:07:42;;;;;;;12.33;9.50;;;6.50;99.90;;;;;;5016565;28;20219;-80
2021/04/04 07:10:36;;;;;;;12.30;8.30;;;6.70;99.90;;;;;;5028618;28;20254;-80
2021/04/04 07:13:23;;;;;;;11.73;8.07;;;6.90;99.90;;;;;;5018668;28;20201;-80
2021/04/04 07:16:11;;;;;;;11.30;8.13;;;7.20;99.90;;;;;;5031797;28;20588;-80
2021/04/04 07:19:09;;;;;;;13.93;8.70;;;7.50;99.90;;;;;;4988415;28;20686;-80
2021/04/04 07:21:59;;;;;;;11.67;7.90;;;7.80;99.90;;;;;;5039935;23;20224;-81
2021/04/04 07:24:40;;;;;;;13.60;8.60;;;8.10;99.90;;;;;;5036491;28;20214;-79
2021/04/04 07:27:13;;;;;;;9.27;7.43;;;8.30;99.90;;;;;;5038002;28;20205;-79
2021/04/04 07:30:01;;;;;;;8.53;5.47;;;8.80;99.90;;;;;;5040728;28;20210;-81
2021/04/04 07:32:35;;;;;;;6.63;5.67;;;9.30;99.90;;;;;;5031991;28;20200;-79
2021/04/04 07:35:09;;;;;;;9.23;6.90;;;9.80;99.90;;;;;;5008723;28;20225;-79
2021/04/04 07:37:45;;;;;;;9.77;6.70;;;10.10;99.90;;;;;;5014932;28;20215;-80
2021/04/04 07:40:15;;;;;;;9.93;7.97;;;10.30;99.90;;;;;;5016049;28;20215;-80
2021/04/04 07:42:52;;;;;;;10.97;8.83;;;10.60;99.90;;;;;;5017513;28;20197;-81
2021/04/04 07:45:26;;;;;;;8.47;7.10;;;10.70;99.90;;;;;;5015044;28;20718;-80
2021/04/04 07:48:04;;;;;;;10.00;7.97;;;11.10;99.90;;;;;;5009031;28;20212;-81
2021/04/04 07:50:35;;;;;;;8.23;7.27;;;11.30;99.90;;;;;;5012724;28;20221;-81
2021/04/04 07:53:11;;;;;;;8.30;6.00;;;11.50;98.70;;;;;;5027653;28;20197;-80
2021/04/04 07:55:45;;;;;;;7.50;5.87;;;11.60;98.60;;;;;;5010972;28;20262;-80
2021/04/04 07:58:21;;;;;;;9.20;6.33;;;11.70;99.10;;;;;;5014878;28;20196;-81
2021/04/04 08:00:53;;;;;;;8.70;6.40;;;11.80;98.60;;;;;;5016457;28;20243;-80
2021/04/04 08:03:24;;;;;;;7.70;5.93;;;11.80;98.20;;;;;;5012787;28;20288;-81
2021/04/04 08:05:53;;;;;;;7.73;5.83;;;12.10;98.50;;;;;;5011935;28;20193;-80
2021/04/04 08:08:25;;;;;;;8.57;6.13;;;12.30;98.50;;;;;;5013103;28;20204;-80
2021/04/04 08:10:56;;;;;;;8.00;6.47;;;12.30;97.90;;;;;;5011472;28;20225;-80
2021/04/04 08:13:31;;;;;;;8.33;6.77;;;12.30;98.40;;;;;;5013751;28;20190;-79
2021/04/04 08:16:05;;;;;;;9.67;8.23;;;12.90;98.00;;;;;;4998756;28;20225;-81
2021/04/04 08:18:31;;;;;;;10.07;8.27;;;13.20;96.60;;;;;;5012327;28;20196;-79
2021/04/04 08:21:02;;;;;;;7.47;6.43;;;13.20;95.30;;;;;;5013191;28;20227;-80
2021/04/04 08:23:32;;;;;;;9.10;6.03;;;13.30;95.30;;;;;;5010828;28;20217;-80
2021/04/04 08:26:02;;;;;;;7.93;6.50;;;13.30;95.40;;;;;;5010546;28;20691;-81
2021/04/04 08:28:35;;;;;;;8.73;7.10;;;13.20;95.00;;;;;;5011684;28;20218;-80
2021/04/04 08:31:09;;;;;;;9.33;5.93;;;13.30;95.20;;;;;;5013315;28;20227;-80
2021/04/04 08:33:44;;;;;;;7.83;5.93;;;13.40;94.50;;;;;;5021732;28;20204;-80
2021/04/04 08:36:16;;;;;;;7.67;5.70;;;13.10;93.60;;;;;;5023521;28;20249;-81
2021/04/04 08:38:47;;;;;;;8.20;5.43;;;13.00;93.00;;;;;;5013328;28;20200;-80
2021/04/04 08:41:16;;;;;;;9.97;8.13;;;12.70;94.20;;;;;;5010297;28;20210;-82
2021/04/04 08:43:49;;;;;;;9.73;7.93;;;12.70;94.00;;;;;;5011974;28;20206;-81
2021/04/04 08:46:21;;;;;;;8.53;7.73;;;12.80;94.60;;;;;;5014188;28;20202;-80
2021/04/04 08:48:48;;;;;;;9.17;8.23;;;13.20;94.90;;;;;;5017782;28;20211;-81
2021/04/04 08:51:19;;;;;;;16.13;8.50;;;13.30;94.50;;;;;;5009135;28;20223;-81
2021/04/04 08:53:49;;;;;;;8.40;7.50;;;13.50;93.70;;;;;;5007357;28;20191;-81
2021/04/04 08:56:17;;;;;;;11.07;8.00;;;13.30;93.90;;;;;;5013969;28;20199;-81
2021/04/04 08:58:48;;;;;;;9.43;8.43;;;13.10;94.60;;;;;;5023217;28;20196;-78
2021/04/04 09:01:20;;;;;;;9.77;8.70;;;13.20;93.40;;;;;;5014723;28;20588;-78
2021/04/04 09:03:50;;;;;;;9.20;8.17;;;13.30;94.10;;;;;;5016302;28;20197;-81
2021/04/04 09:06:18;;;;;;;9.03;8.13;;;13.50;93.40;;;;;;5013522;28;20197;-82
2021/04/04 09:08:44;;;;;;;9.90;8.10;;;13.80;93.70;;;;;;5022344;28;20196;-80
2021/04/04 09:11:11;;;;;;;9.90;8.20;;;14.00;92.50;;;;;;5016757;28;20216;-79
2021/04/04 09:13:38;;;;;;;8.67;7.77;;;13.70;94.20;;;;;;5018068;28;20203;-80
2021/04/04 09:16:10;;;;;;;9.03;8.03;;;13.90;93.90;;;;;;5015104;28;20216;-80
2021/04/04 09:18:48;;;;;;;9.40;8.50;;;13.80;91.90;;;;;;5014505;28;20193;-81
2021/04/04 09:21:16;;;;;;;11.30;8.20;;;13.80;93.60;;;;;;5015146;28;20232;-80
2021/04/04 09:23:45;;;;;;;9.07;7.80;;;14.30;93.40;;;;;;5010386;28;20208;-79
2021/04/04 09:26:14;;;;;;;9.27;6.97;;;14.80;92.50;;;;;;5015444;28;20209;-77
2021/04/04 09:28:42;;;;;;;8.33;6.10;;;15.10;91.70;;;;;;5012376;28;20196;-82
2021/04/04 09:31:19;;;;;;;8.67;6.30;;;14.70;91.20;;;;;;5017106;28;20221;-82
2021/04/04 09:33:51;;;;;;;10.17;6.27;;;14.60;90.90;;;;;;5036148;28;20200;-82
2021/04/04 09:36:18;;;;;;;9.00;5.97;;;14.50;92.10;;;;;;5026620;28;20625;-80
2021/04/04 09:38:46;;;;;;;6.87;6.13;;;14.60;88.80;;;;;;5014828;28;20199;-78
2021/04/04 09:41:13;;;;;;;10.33;6.33;;;14.70;90.20;;;;;;5018277;28;20216;-78
2021/04/04 09:43:40;;;;;;;7.30;5.63;;;15.00;91.10;;;;;;5020718;28;20216;-79
2021/04/04 09:46:07;;;;;;;8.23;5.57;;;15.30;89.80;;;;;;5016630;28;20197;-79
2021/04/04 09:48:40;;;;;;;5.43;4.90;;;15.10;89.60;;;;;;5008060;28;20693;-80
2021/04/04 09:51:10;;;;;;;6.03;5.43;;;15.20;88.40;;;;;;5011633;28;20396;-80
2021/04/04 09:53:40;;;;;;;6.50;5.63;;;14.90;88.60;;;;;;5015824;28;20200;-80
2021/04/04 09:56:10;;;;;;;7.13;5.00;;;14.50;87.50;;;;;;5012187;28;20625;-80
2021/04/04 09:58:39;;;;;;;7.73;5.10;;;14.40;83.40;;;;;;5011981;28;20192;-82
2021/04/04 10:01:15;;;;;;;7.93;5.03;;;14.50;85.20;;;;;;5006754;28;20242;-80
2021/04/04 10:03:42;;;;;;;6.30;4.17;;;14.50;88.90;;;;;;5014046;28;20198;-79
2021/04/04 10:06:12;;;;;;;7.53;4.37;;;14.20;86.70;;;;;;5013902;28;20790;-80
2021/04/04 10:08:51;;;;;;;6.13;5.33;;;14.40;87.80;;;;;;5011858;28;20222;-81
2021/04/04 10:11:19;;;;;;;7.37;5.67;;;14.30;87.30;;;;;;5011129;28;20228;-83
2021/04/04 10:13:47;;;;;;;7.63;5.20;;;14.60;85.80;;;;;;5027012;28;20681;-80
2021/04/04 10:16:19;;;;;;;5.20;4.47;;;14.70;85.90;;;;;;5010872;28;20279;-79
2021/04/04 10:19:00;;;;;;;5.60;4.83;;;14.80;84.60;;;;;;5012673;28;20212;-79
2021/04/04 10:21:27;;;;;;;5.70;4.43;;;14.60;84.10;;;;;;5018359;28;20286;-79
2021/04/04 10:23:53;;;;;;;5.57;4.23;;;14.60;83.30;;;;;;5020451;28;20215;-80
2021/04/04 10:26:21;;;;;;;5.10;4.60;;;14.60;82.60;;;;;;5020239;28;20193;-80
2021/04/04 10:28:51;;;;;;;5.17;4.10;;;14.50;82.60;;;;;;5018741;28;20630;-80
2021/04/04 10:31:18;;;;;;;4.83;4.37;;;14.40;83.10;;;;;;5019057;28;20638;-78
2021/04/04 10:33:45;;;;;;;7.93;4.57;;;14.40;82.60;;;;;;5017140;28;20210;-78
2021/04/04 10:36:14;;;;;;;5.13;4.60;;;14.40;82.10;;;;;;5014018;28;20906;-79
2021/04/04 10:38:41;;;;;;;6.07;4.50;;;14.00;80.00;;;;;;5004052;28;20197;-79
2021/04/04 10:41:07;;;;;;;7.10;4.50;;;13.60;81.20;;;;;;5019325;28;20278;-78
2021/04/04 10:43:39;;;;;;;5.40;4.30;;;13.30;81.20;;;;;;5012292;28;20203;-79
2021/04/04 10:46:07;;;;;;;4.57;4.17;;;13.10;81.10;;;;;;5015092;28;20192;-80
2021/04/04 10:48:35;;;;;;;4.87;3.10;;;13.00;81.80;;;;;;5010519;28;20211;-79
2021/04/04 10:51:03;;;;;;;6.53;4.33;;;12.80;82.10;;;;;;5022530;28;20222;-80
2021/04/04 10:53:31;;;;;;;5.23;4.73;;;12.80;83.90;;;;;;5019633;28;20206;-80
2021/04/04 10:55:57;;;;;;;4.50;4.20;;;13.00;84.10;;;;;;5008087;28;20210;-79
2021/04/04 10:58:26;;;;;;;4.80;4.30;;;13.20;82.80;;;;;;5015834;28;20200;-80
2021/04/04 11:00:53;;;;;;;5.40;4.80;;;13.10;80.20;;;;;;5009282;28;20234;-80
2021/04/04 11:03:20;;;;;;;5.63;4.90;;;13.00;80.00;;;;;;5013217;28;20199;-79
2021/04/04 11:05:47;;;;;;;5.00;4.50;;;12.80;78.80;;;;;;5014507;28;20194;-78
2021/04/04 11:08:14;;;;;;;4.47;3.90;;;12.60;80.80;;;;;;5013506;28;20210;-78
2021/04/04 11:10:41;;;;;;;4.70;4.07;;;12.70;81.50;;;;;;5030567;28;20229;-79
2021/04/04 11:13:07;;;;;;;4.37;3.97;;;12.70;80.90;;;;;;5021592;28;20202;-79
2021/04/04 11:15:37;;;;;;;4.10;3.80;;;12.90;81.90;;;;;;5011213;28;20734;-79
2021/04/04 11:18:10;;;;;;;5.63;4.27;;;12.90;79.30;;;;;;5014524;28;20203;-79
2021/04/04 11:20:38;;;;;;;5.27;4.37;;;12.70;79.90;;;;;;5027475;28;20230;-79
2021/04/04 11:23:08;;;;;;;4.30;4.00;;;12.80;79.60;;;;;;5008531;28;20214;-78
2021/04/04 11:25:34;;;;;;;4.43;4.03;;;12.70;78.80;;;;;;5020133;28;20205;-79
2021/04/04 11:28:15;;;;;;;4.27;3.70;;;12.70;79.70;;;;;;5021945;28;20208;-78
2021/04/04 11:30:42;;;;;;;4.77;3.87;;;12.80;79.40;;;;;;5015292;28;20227;-79
2021/04/04 11:33:29;;;;;;;5.70;3.60;;;12.70;79.20;;;;;;5016241;28;20202;-79
2021/04/04 11:36:17;;;;;;;5.83;4.17;;;12.80;81.00;;;;;;5016933;28;20211;-78
2021/04/04 11:39:07;;;;;;;6.00;4.60;;;13.10;81.10;;;;;;5011864;28;20206;-78
2021/04/04 11:41:47;;;;;;;4.83;4.03;;;12.80;80.50;;;;;;5019674;28;20263;-78
2021/04/04 11:44:20;;;;;;;4.73;4.13;;;12.80;79.70;;;;;;5029890;28;20188;-78
2021/04/04 11:46:49;;;;;;;4.10;3.60;;;12.80;80.00;;;;;;5014115;28;20666;-80
2021/04/04 11:49:39;;;;;;;4.47;3.73;;;12.90;80.00;;;;;;5020240;28;20209;-78
2021/04/04 11:52:48;;;;;;;5.23;4.00;;;12.70;80.00;;;;;;5018647;28;20555;-79
2021/04/04 11:55:16;;;;;;;5.67;4.43;;;12.60;81.60;;;;;;5013928;28;20205;-77
2021/04/04 11:57:45;;;;;;;4.90;4.40;;;12.50;81.00;;;;;;5013485;28;20301;-78
2021/04/04 12:00:21;;;;;;;4.73;4.33;;;12.20;79.70;;;;;;5011486;28;20743;-80
2021/04/04 12:02:59;;;;;;;6.23;4.60;;;12.20;80.80;;;;;;5024362;28;20200;-77
2021/04/04 12:05:26;;;;;;;6.67;4.60;;;12.20;80.30;;;;;;5015384;28;20278;-77
2021/04/04 12:07:54;;;;;;;5.37;4.50;;;12.20;80.00;;;;;;5022085;28;20204;-78
2021/04/04 12:10:22;;;;;;;5.27;4.67;;;12.30;81.80;;;;;;5018064;28;20219;-79
2021/04/04 12:12:49;;;;;;;5.10;4.60;;;12.40;80.80;;;;;;5004789;28;20232;-77
2021/04/04 12:15:18;;;;;;;4.73;4.33;;;12.40;81.20;;;;;;5005907;28;20225;-79
2021/04/04 12:17:48;;;;;;;4.73;4.27;;;12.50;79.20;;;;;;5003124;28;20217;-78
2021/04/04 12:20:18;;;;;;;5.13;4.63;;;12.50;80.30;;;;;;5005955;28;20230;-78
2021/04/04 12:22:47;;;;;;;5.10;4.60;;;12.30;79.60;;;;;;5011590;28;20222;-77
2021/04/04 12:25:15;;;;;;;4.93;4.50;;;12.30;80.30;;;;;;5013992;28;20198;-78
2021/04/04 12:27:43;;;;;;;4.80;4.30;;;12.30;81.30;;;;;;5019099;28;20681;-78
2021/04/04 12:30:21;;;;;;;5.53;4.80;;;12.40;80.70;;;;;;5025186;28;20218;-79
2021/04/04 12:32:59;;;;;;;5.17;4.60;;;12.40;79.80;;;;;;5023036;28;20199;-78
2021/04/04 12:35:25;;;;;;;5.50;4.53;;;12.20;79.00;;;;;;5016436;28;20204;-78
2021/04/04 12:37:52;;;;;;;4.90;4.40;;;12.20;80.00;;;;;;5020660;28;20199;-78
2021/04/04 12:40:18;;;;;;;5.77;4.40;;;12.30;80.00;;;;;;5018006;28;20208;-78
2021/04/04 12:42:45;;;;;;;4.73;4.23;;;12.40;79.40;;;;;;5021642;28;20201;-78
2021/04/04 12:45:14;;;;;;;5.00;4.20;;;12.40;80.70;;;;;;5018494;28;20211;-79
2021/04/04 12:47:41;;;;;;;5.10;4.60;;;12.50;80.40;;;;;;5020355;28;20255;-78
2021/04/04 12:50:10;;;;;;;4.80;4.00;;;12.60;80.80;;;;;;5011923;28;20223;-78
2021/04/04 12:52:39;;;;;;;6.30;4.60;;;12.60;80.40;;;;;;5015788;28;20190;-79
2021/04/04 12:55:34;;;;;;;4.70;4.30;;;12.60;77.80;;;;;;5021068;28;20229;-79
2021/04/04 12:58:03;;;;;;;4.60;4.20;;;12.40;77.80;;;;;;5015912;28;20204;-79
2021/04/04 13:00:31;;;;;;;4.63;4.23;;;12.30;77.30;;;;;;5019200;28;20610;-79
2021/04/04 13:03:00;;;;;;;5.67;4.80;;;12.30;78.30;;;;;;5009829;28;20198;-79
2021/04/04 13:05:33;;;;;;;4.97;4.20;;;12.30;77.30;;;;;;5008291;28;20206;-79
2021/04/04 13:08:00;;;;;;;4.73;4.30;;;12.30;78.20;;;;;;5012556;28;20608;-77